createdAt,value
2022-09-15T00:02:13.555Z,100.00
2022-09-15T00:04:40.069Z,100.00
2022-09-15T00:07:06.628Z,100.00
2022-09-15T00:09:33.166Z,100.00
2022-09-15T00:11:59.614Z,100.00
2022-09-15T00:14:26.081Z,100.00
2022-09-15T00:16:52.593Z,100.00
2022-09-15T00:19:19.056Z,100.00
2022-09-15T00:21:45.495Z,100.00
2022-09-15T00:24:12.127Z,100.00
2022-09-15T00:26:38.773Z,100.00
2022-09-15T00:29:05.662Z,100.00
2022-09-15T00:31:32.784Z,100.00
2022-09-15T00:34:04.195Z,100.00
2022-09-15T00:36:31.061Z,100.00
2022-09-15T00:38:57.897Z,100.00
2022-09-15T00:41:24.940Z,100.00
2022-09-15T00:43:57.965Z,100.00
2022-09-15T00:46:36.051Z,100.00
2022-09-15T00:49:09.489Z,100.00
2022-09-15T00:51:43.233Z,100.00
2022-09-15T00:54:16.157Z,100.00
2022-09-15T00:56:44.114Z,100.00
2022-09-15T00:59:17.572Z,100.00
2022-09-15T01:01:47.094Z,100.00
2022-09-15T01:04:18.445Z,100.00
2022-09-15T01:06:55.542Z,100.00
2022-09-15T01:10:12.364Z,100.00
2022-09-15T01:13:09.134Z,100.00
2022-09-15T01:16:11.118Z,100.00
2022-09-15T01:19:32.252Z,100.00
2022-09-15T01:22:37.705Z,100.00
2022-09-15T01:25:29.854Z,100.00
2022-09-15T01:28:14.635Z,100.00
2022-09-15T01:30:48.250Z,100.00
2022-09-15T01:33:29.451Z,100.00
2022-09-15T01:36:05.025Z,100.00
2022-09-15T01:38:54.579Z,100.00
2022-09-15T01:41:29.440Z,100.00
2022-09-15T01:44:07.941Z,100.00
2022-09-15T01:46:40.954Z,100.00
2022-09-15T01:49:11.199Z,100.00
2022-09-15T01:51:40.214Z,100.00
2022-09-15T01:54:07.670Z,100.00
2022-09-15T01:56:36.928Z,100.00
2022-09-15T01:59:03.530Z,100.00
2022-09-15T02:02:01.710Z,100.00
2022-09-15T02:04:36.766Z,100.00
2022-09-15T02:07:08.245Z,100.00
2022-09-15T02:09:46.929Z,100.00
2022-09-15T02:12:22.996Z,100.00
2022-09-15T02:14:59.444Z,100.00
2022-09-15T02:17:29.222Z,100.00
2022-09-15T02:20:10.184Z,100.00
2022-09-15T02:22:41.012Z,100.00
2022-09-15T02:25:13.821Z,100.00
2022-09-15T02:27:45.850Z,100.00
2022-09-15T02:30:15.876Z,100.00
2022-09-15T02:32:58.051Z,100.00
2022-09-15T02:35:26.821Z,100.00
2022-09-15T02:37:54.586Z,100.00
2022-09-15T02:40:22.497Z,100.00
2022-09-15T02:43:01.041Z,100.00
2022-09-15T02:45:29.247Z,100.00
2022-09-15T02:47:57.034Z,100.00
2022-09-15T02:50:26.721Z,100.00
2022-09-15T02:52:54.939Z,100.00
2022-09-15T02:55:21.592Z,100.00
2022-09-15T02:57:48.120Z,100.00
2022-09-15T03:00:17.297Z,100.00
2022-09-15T03:02:46.921Z,100.00
2022-09-15T03:05:14.981Z,100.00
2022-09-15T03:07:41.532Z,100.00
2022-09-15T03:10:10.028Z,100.00
2022-09-15T03:12:47.022Z,100.00
2022-09-15T03:15:16.310Z,100.00
2022-09-15T03:17:43.714Z,100.00
2022-09-15T03:20:12.848Z,100.00
2022-09-15T03:22:39.407Z,100.00
2022-09-15T03:25:07.319Z,100.00
2022-09-15T03:27:35.397Z,100.00
2022-09-15T03:30:01.978Z,100.00
2022-09-15T03:32:28.499Z,100.00
2022-09-15T03:34:58.361Z,100.00
2022-09-15T03:37:25.846Z,100.00
2022-09-15T03:39:52.304Z,100.00
2022-09-15T03:42:19.655Z,100.00
2022-09-15T03:44:46.125Z,100.00
2022-09-15T03:47:12.558Z,100.00
2022-09-15T03:49:39.039Z,100.00
2022-09-15T03:52:05.522Z,100.00
2022-09-15T03:54:31.996Z,100.00
2022-09-15T03:56:58.884Z,100.00
2022-09-15T03:59:25.387Z,100.00
2022-09-15T04:01:51.966Z,100.00
2022-09-15T04:04:18.599Z,100.00
2022-09-15T04:06:45.180Z,100.00
2022-09-15T04:09:11.775Z,100.00
2022-09-15T04:11:39.447Z,100.00
2022-09-15T04:14:05.886Z,100.00
2022-09-15T04:16:32.337Z,100.00
2022-09-15T04:18:58.797Z,100.00
2022-09-15T04:21:26.683Z,100.00
2022-09-15T04:23:54.021Z,100.00
2022-09-15T04:26:28.691Z,100.00
2022-09-15T04:28:55.115Z,100.00
2022-09-15T04:31:21.648Z,100.00
2022-09-15T04:33:48.182Z,100.00
2022-09-15T04:36:18.204Z,100.00
2022-09-15T04:38:45.664Z,100.00
2022-09-15T04:41:14.105Z,100.00
2022-09-15T04:43:43.024Z,100.00
2022-09-15T04:46:10.114Z,100.00
2022-09-15T04:48:37.722Z,100.00
2022-09-15T04:51:06.737Z,100.00
2022-09-15T04:53:33.152Z,100.00
2022-09-15T04:56:04.700Z,100.00
2022-09-15T04:58:31.763Z,100.00
2022-09-15T05:00:58.172Z,100.00
2022-09-15T05:03:24.676Z,100.00
2022-09-15T05:05:51.311Z,100.00
2022-09-15T05:08:17.747Z,100.00
2022-09-15T05:10:44.118Z,100.00
2022-09-15T05:13:10.571Z,100.00
2022-09-15T05:15:36.953Z,100.00
2022-09-15T05:18:03.544Z,100.00
2022-09-15T05:20:29.960Z,100.00
2022-09-15T05:22:56.321Z,100.00
2022-09-15T05:25:22.703Z,100.00
2022-09-15T05:27:49.401Z,100.00
2022-09-15T05:30:36.743Z,100.00
2022-09-15T05:33:02.702Z,100.00
2022-09-15T05:35:29.366Z,100.00
2022-09-15T05:37:55.815Z,100.00
2022-09-15T05:40:22.731Z,100.00
2022-09-15T05:42:49.214Z,100.00
2022-09-15T05:45:15.905Z,100.00
2022-09-15T05:47:42.316Z,100.00
2022-09-15T05:50:09.228Z,100.00
2022-09-15T05:52:35.909Z,100.00
2022-09-15T05:55:03.050Z,100.00
2022-09-15T05:57:29.431Z,100.00
2022-09-15T05:59:55.824Z,100.00
2022-09-15T06:02:22.346Z,100.00
2022-09-15T06:04:48.762Z,100.00
2022-09-15T06:07:16.500Z,100.00
2022-09-15T06:09:42.912Z,100.00
2022-09-15T06:12:09.384Z,100.00
2022-09-15T06:14:35.800Z,100.00
2022-09-15T06:17:02.431Z,100.00
2022-09-15T06:19:28.825Z,100.00
2022-09-15T06:21:55.259Z,100.00
2022-09-15T06:24:22.048Z,100.00
2022-09-15T06:26:48.490Z,100.00
2022-09-15T06:29:14.929Z,100.00
2022-09-15T06:31:41.604Z,100.00
2022-09-15T06:34:09.385Z,100.00
2022-09-15T06:36:37.693Z,100.00
2022-09-15T06:39:04.201Z,100.00
2022-09-15T06:41:52.457Z,100.00
2022-09-15T06:44:17.608Z,100.00
2022-09-15T06:46:43.954Z,100.00
2022-09-15T06:49:10.411Z,100.00
2022-09-15T06:51:36.834Z,100.00
2022-09-15T06:54:04.442Z,100.00
2022-09-15T06:56:34.465Z,100.00
2022-09-15T06:59:03.905Z,100.00
2022-09-15T07:01:32.388Z,100.00
2022-09-15T07:04:01.251Z,100.00
2022-09-15T07:06:29.670Z,100.00
2022-09-15T07:08:57.079Z,100.00
2022-09-15T07:11:23.464Z,100.00
2022-09-15T07:13:50.659Z,100.00
2022-09-15T07:16:19.002Z,100.00
2022-09-15T07:18:46.443Z,100.00
2022-09-15T07:21:15.064Z,100.00
2022-09-15T07:23:42.896Z,100.00
2022-09-15T07:26:15.678Z,100.00
2022-09-15T07:28:44.367Z,100.00
2022-09-15T07:31:13.742Z,100.00
2022-09-15T07:33:40.241Z,100.00
2022-09-15T07:36:08.210Z,100.00
2022-09-15T07:38:38.594Z,100.00
2022-09-15T07:41:06.811Z,100.00
2022-09-15T07:43:33.220Z,100.00
2022-09-15T07:46:00.579Z,100.00
2022-09-15T07:48:27.610Z,100.00
2022-09-15T07:50:54.086Z,100.00
2022-09-15T07:53:21.065Z,100.00
2022-09-15T07:55:54.498Z,100.00
2022-09-15T07:58:21.787Z,100.00
2022-09-15T08:00:49.008Z,100.00
2022-09-15T08:03:23.736Z,100.00
2022-09-15T08:05:58.564Z,100.00
2022-09-15T08:08:25.854Z,100.00
2022-09-15T08:10:58.498Z,100.00
2022-09-15T08:13:31.216Z,100.00
2022-09-15T08:16:07.619Z,100.00
2022-09-15T08:18:34.743Z,100.00
2022-09-15T08:21:07.644Z,100.00
2022-09-15T08:23:34.123Z,99.44
2022-09-15T08:26:00.914Z,99.89
2022-09-15T08:28:27.847Z,100.00
2022-09-15T08:30:59.929Z,100.00
2022-09-15T08:33:27.577Z,100.00
2022-09-15T08:35:55.564Z,100.00
2022-09-15T08:38:22.007Z,100.00
2022-09-15T08:40:48.776Z,100.00
2022-09-15T08:43:25.147Z,100.00
2022-09-15T08:46:02.549Z,100.00
2022-09-15T08:48:41.266Z,100.00
2022-09-15T08:51:16.070Z,100.00
2022-09-15T08:53:47.935Z,100.00
2022-09-15T08:56:18.084Z,99.93
2022-09-15T08:58:48.621Z,99.81
2022-09-15T09:01:47.446Z,99.09
2022-09-15T09:04:32.550Z,99.47
2022-09-15T09:07:23.642Z,98.60
2022-09-15T09:10:01.572Z,96.01
2022-09-15T09:13:07.260Z,96.19
2022-09-15T09:15:45.851Z,96.98
2022-09-15T09:18:46.812Z,98.57
2022-09-15T09:21:13.124Z,99.73
2022-09-15T09:23:50.645Z,100.00
2022-09-15T09:26:17.786Z,100.00
2022-09-15T09:28:58.537Z,99.97
2022-09-15T09:31:27.184Z,99.28
2022-09-15T09:34:02.915Z,98.63
2022-09-15T09:36:29.317Z,100.00
2022-09-15T09:38:56.267Z,100.00
2022-09-15T09:41:35.691Z,99.78
2022-09-15T09:44:11.090Z,98.16
2022-09-15T09:46:37.632Z,97.37
2022-09-15T09:49:23.166Z,97.40
2022-09-15T09:51:54.267Z,96.20
2022-09-15T09:54:27.203Z,97.19
2022-09-15T09:56:55.278Z,96.93
2022-09-15T09:59:47.920Z,95.32
2022-09-15T10:02:18.958Z,95.88
2022-09-15T10:05:06.742Z,94.43
2022-09-15T10:07:34.644Z,93.70
2022-09-15T10:10:02.272Z,94.22
2022-09-15T10:12:32.484Z,94.09
2022-09-15T10:15:05.596Z,94.41
2022-09-15T10:17:47.370Z,92.87
2022-09-15T10:20:32.712Z,93.37
2022-09-15T10:23:17.630Z,92.52
2022-09-15T10:25:58.455Z,91.97
2022-09-15T10:28:27.349Z,90.31
2022-09-15T10:31:10.852Z,89.72
2022-09-15T10:33:40.313Z,91.26
2022-09-15T10:36:20.801Z,90.94
2022-09-15T10:38:49.883Z,90.92
2022-09-15T10:41:27.862Z,88.46
2022-09-15T10:44:16.023Z,87.32
2022-09-15T10:47:20.107Z,86.98
2022-09-15T10:50:15.251Z,88.40
2022-09-15T10:52:56.922Z,87.40
2022-09-15T10:55:51.617Z,86.68
2022-09-15T10:58:32.157Z,85.81
2022-09-15T11:01:20.588Z,86.20
2022-09-15T11:04:06.755Z,85.25
2022-09-15T11:07:04.752Z,85.36
2022-09-15T11:09:38.564Z,84.71
2022-09-15T11:12:17.109Z,85.76
2022-09-15T11:15:02.203Z,85.76
2022-09-15T11:17:39.476Z,85.17
2022-09-15T11:20:14.189Z,83.95
2022-09-15T11:22:53.076Z,83.49
2022-09-15T11:25:26.365Z,84.37
2022-09-15T11:28:04.558Z,83.68
2022-09-15T11:30:47.658Z,84.34
2022-09-15T11:33:22.807Z,82.75
2022-09-15T11:36:22.894Z,80.62
2022-09-15T11:38:49.501Z,80.18
2022-09-15T11:41:40.717Z,76.78
2022-09-15T11:44:18.413Z,77.75
2022-09-15T11:47:03.109Z,75.79
2022-09-15T11:49:40.704Z,74.55
2022-09-15T11:52:26.820Z,73.28
2022-09-15T11:55:03.633Z,73.56
2022-09-15T11:58:16.345Z,75.12
2022-09-15T12:00:52.526Z,75.91
2022-09-15T12:03:36.144Z,76.60
2022-09-15T12:06:21.615Z,74.86
2022-09-15T12:09:00.795Z,73.98
2022-09-15T12:11:31.000Z,72.98
2022-09-15T12:13:59.892Z,73.98
2022-09-15T12:16:28.081Z,71.94
2022-09-15T12:19:14.518Z,72.17
2022-09-15T12:22:01.814Z,68.94
2022-09-15T12:24:57.819Z,69.92
2022-09-15T12:27:27.276Z,70.75
2022-09-15T12:29:58.614Z,69.92
2022-09-15T12:32:33.151Z,71.00
2022-09-15T12:35:07.941Z,70.97
2022-09-15T12:37:57.821Z,70.17
2022-09-15T12:40:30.305Z,69.94
2022-09-15T12:42:57.532Z,70.36
2022-09-15T12:45:27.650Z,71.89
2022-09-15T12:48:19.186Z,71.54
2022-09-15T12:51:03.132Z,71.67
2022-09-15T12:56:08.248Z,70.58
2022-09-15T12:58:40.689Z,71.23
2022-09-15T13:01:19.604Z,70.42
2022-09-15T13:03:46.320Z,70.71
2022-09-15T13:06:16.264Z,70.24
2022-09-15T13:08:48.427Z,68.82
2022-09-15T13:11:20.381Z,69.18
2022-09-15T13:14:06.811Z,70.72
2022-09-15T13:16:51.685Z,69.73
2022-09-15T13:19:30.873Z,69.48
2022-09-15T13:22:05.024Z,69.93
2022-09-15T13:24:57.809Z,70.87
2022-09-15T13:27:40.704Z,70.85
2022-09-15T13:30:23.545Z,68.78
2022-09-15T13:33:12.751Z,68.06
2022-09-15T13:35:58.510Z,65.82
2022-09-15T13:38:46.333Z,65.93
2022-09-15T13:41:27.196Z,65.25
2022-09-15T13:44:15.077Z,64.57
2022-09-15T13:46:56.932Z,63.41
2022-09-15T13:49:38.710Z,64.48
2022-09-15T13:52:23.356Z,65.27
2022-09-15T13:55:16.584Z,65.12
2022-09-15T14:00:43.314Z,66.08
2022-09-15T14:03:17.359Z,66.15
2022-09-15T14:05:45.010Z,67.07
2022-09-15T14:08:22.408Z,68.11
2022-09-15T14:10:55.412Z,68.09
2022-09-15T14:13:24.927Z,68.19
2022-09-15T14:16:03.685Z,68.38
2022-09-15T14:18:40.464Z,67.99
2022-09-15T14:21:06.946Z,67.81
2022-09-15T14:23:33.446Z,67.38
2022-09-15T14:26:02.331Z,66.58
2022-09-15T14:28:32.365Z,66.54
2022-09-15T14:31:02.857Z,66.76
2022-09-15T14:33:38.340Z,65.41
2022-09-15T14:36:28.931Z,64.60
2022-09-15T14:39:16.817Z,64.29
2022-09-15T14:41:43.996Z,63.93
2022-09-15T14:47:25.228Z,64.51
2022-09-15T14:50:07.270Z,64.98
2022-09-15T14:52:38.082Z,64.92
2022-09-15T14:55:11.082Z,62.32
2022-09-15T14:57:41.544Z,61.66
2022-09-15T15:00:14.123Z,62.36
2022-09-15T15:02:59.076Z,62.44
2022-09-15T15:05:30.922Z,62.51
2022-09-15T15:07:57.499Z,63.93
2022-09-15T15:10:34.863Z,63.86
2022-09-15T15:13:07.779Z,64.94
2022-09-15T15:15:36.898Z,64.52
2022-09-15T15:18:06.284Z,65.00
2022-09-15T15:20:32.879Z,65.98
2022-09-15T15:23:16.768Z,65.27
2022-09-15T15:25:43.801Z,66.05
2022-09-15T15:28:29.112Z,66.73
2022-09-15T15:31:06.647Z,65.99
2022-09-15T15:33:33.527Z,65.70
2022-09-15T15:36:22.325Z,65.03
2022-09-15T15:38:52.926Z,65.06
2022-09-15T15:41:31.359Z,65.85
2022-09-15T15:44:08.907Z,65.56
2022-09-15T15:46:56.575Z,66.34
2022-09-15T15:49:29.328Z,65.94
2022-09-15T15:51:57.267Z,66.05
2022-09-15T15:54:25.148Z,66.55
2022-09-15T15:56:53.077Z,66.29
2022-09-15T15:59:20.216Z,65.59
2022-09-15T16:01:51.129Z,64.88
2022-09-15T16:04:17.580Z,66.26
2022-09-15T16:06:44.846Z,66.98
2022-09-15T16:09:14.651Z,66.21
2022-09-15T16:11:42.721Z,66.36
2022-09-15T16:14:12.140Z,65.96
2022-09-15T16:16:38.571Z,65.92
2022-09-15T16:19:05.019Z,65.68
2022-09-15T16:21:37.138Z,66.61
2022-09-15T16:24:11.675Z,66.63
2022-09-15T16:26:39.300Z,66.86
2022-09-15T16:29:05.990Z,67.39
2022-09-15T16:31:33.583Z,68.18
2022-09-15T16:34:00.286Z,67.23
2022-09-15T16:36:26.825Z,68.51
2022-09-15T16:38:53.657Z,68.18
2022-09-15T16:41:25.554Z,69.11
2022-09-15T16:43:53.412Z,62.46
2022-09-15T16:46:20.246Z,62.26
2022-09-15T16:48:49.228Z,62.21
2022-09-15T16:51:27.927Z,61.55
2022-09-15T16:53:57.267Z,62.35
2022-09-15T16:56:27.040Z,63.55
2022-09-15T16:58:58.909Z,63.86
2022-09-15T17:01:26.278Z,64.31
2022-09-15T17:03:52.726Z,65.03
2022-09-15T17:06:19.153Z,66.26
2022-09-15T17:08:45.795Z,65.88
2022-09-15T17:11:16.709Z,66.00
2022-09-15T17:13:44.054Z,65.79
2022-09-15T17:16:12.035Z,66.49
2022-09-15T17:18:38.410Z,66.11
2022-09-15T17:21:05.066Z,65.87
2022-09-15T17:23:35.395Z,66.59
2022-09-15T17:26:04.829Z,66.84
2022-09-15T17:28:33.687Z,67.36
2022-09-15T17:31:02.411Z,67.32
2022-09-15T17:33:33.029Z,67.57
2022-09-15T17:36:00.264Z,69.19
2022-09-15T17:38:27.117Z,70.70
2022-09-15T17:40:57.349Z,71.50
2022-09-15T17:43:26.510Z,70.32
2022-09-15T17:45:53.875Z,70.67
2022-09-15T17:48:20.882Z,71.75
2022-09-15T17:50:48.712Z,71.36
2022-09-15T17:53:18.381Z,72.69
2022-09-15T17:55:44.814Z,73.33
2022-09-15T17:58:11.562Z,72.65
2022-09-15T18:00:40.683Z,73.16
2022-09-15T18:03:23.909Z,74.88
2022-09-15T18:05:51.759Z,75.76
2022-09-15T18:08:18.445Z,73.53
2022-09-15T18:10:45.119Z,74.20
2022-09-15T18:13:17.227Z,74.69
2022-09-15T18:15:44.433Z,75.91
2022-09-15T18:18:19.745Z,77.01
2022-09-15T18:20:46.875Z,76.08
2022-09-15T18:23:16.314Z,76.58
2022-09-15T18:25:45.121Z,75.89
2022-09-15T18:28:11.611Z,76.35
2022-09-15T18:30:41.256Z,77.08
2022-09-15T18:33:13.891Z,77.95
2022-09-15T18:35:41.245Z,77.87
2022-09-15T18:38:08.619Z,77.35
2022-09-15T18:40:35.218Z,77.85
2022-09-15T18:43:01.633Z,78.34
2022-09-15T18:45:28.303Z,78.89
2022-09-15T18:47:55.142Z,77.82
2022-09-15T18:50:25.139Z,77.72
2022-09-15T18:52:51.589Z,77.51
2022-09-15T18:55:22.083Z,77.40
2022-09-15T18:57:49.091Z,77.16
2022-09-15T19:00:19.053Z,77.40
2022-09-15T19:02:46.093Z,77.63
2022-09-15T19:05:18.517Z,77.53
2022-09-15T19:07:45.403Z,77.34
2022-09-15T19:10:14.021Z,78.29
2022-09-15T19:12:40.863Z,78.31
2022-09-15T19:15:11.992Z,78.33
2022-09-15T19:17:39.348Z,79.10
2022-09-15T19:20:08.468Z,79.88
2022-09-15T19:22:35.412Z,79.55
2022-09-15T19:25:02.170Z,82.03
2022-09-15T19:27:28.680Z,82.40
2022-09-15T19:29:55.294Z,83.42
2022-09-15T19:32:22.516Z,83.04
2022-09-15T19:34:49.617Z,83.96
2022-09-15T19:37:19.668Z,82.23
2022-09-15T19:39:47.140Z,80.35
2022-09-15T19:44:45.932Z,78.08
2022-09-15T19:47:12.333Z,78.73
2022-09-15T19:49:38.764Z,78.41
2022-09-15T19:52:06.417Z,78.38
2022-09-15T19:54:34.443Z,76.88
2022-09-15T19:57:01.693Z,76.96
2022-09-15T19:59:31.311Z,78.09
2022-09-15T20:01:59.537Z,78.73
2022-09-15T20:04:26.575Z,78.61
2022-09-15T20:06:53.101Z,79.65
2022-09-15T20:09:19.531Z,81.00
2022-09-15T20:11:46.074Z,80.79
2022-09-15T20:14:12.530Z,79.65
2022-09-15T20:16:39.280Z,80.71
2022-09-15T20:19:06.481Z,79.99
2022-09-15T20:21:51.581Z,80.93
2022-09-15T20:24:19.680Z,81.23
2022-09-15T20:26:46.240Z,81.74
2022-09-15T20:29:13.143Z,81.79
2022-09-15T20:31:40.484Z,82.07
2022-09-15T20:34:06.869Z,81.38
2022-09-15T20:36:36.411Z,81.39
2022-09-15T20:39:05.117Z,82.16
2022-09-15T20:41:35.008Z,82.21
2022-09-15T20:44:04.996Z,80.95
2022-09-15T20:46:34.733Z,81.42
2022-09-15T20:49:01.576Z,80.81
2022-09-15T20:51:31.563Z,81.05
2022-09-15T20:53:59.945Z,80.28
2022-09-15T20:56:27.627Z,80.41
2022-09-15T20:58:55.006Z,80.33
2022-09-15T21:01:24.757Z,81.10
2022-09-15T21:03:51.720Z,80.42
2022-09-15T21:06:20.978Z,78.97
2022-09-15T21:08:57.709Z,79.79
2022-09-15T21:11:27.025Z,79.49
2022-09-15T21:13:53.916Z,79.19
2022-09-15T21:16:22.333Z,79.04
2022-09-15T21:18:50.072Z,79.91
2022-09-15T21:21:28.294Z,80.10
2022-09-15T21:23:58.573Z,81.12
2022-09-15T21:26:27.631Z,81.82
2022-09-15T21:28:56.004Z,81.01
2022-09-15T21:31:29.987Z,81.79
2022-09-15T21:33:57.443Z,81.82
2022-09-15T21:36:29.696Z,80.88
2022-09-15T21:38:58.351Z,81.40
2022-09-15T21:41:27.285Z,81.64
2022-09-15T21:43:55.138Z,81.37
2022-09-15T21:46:24.164Z,80.61
2022-09-15T21:48:50.836Z,80.12
2022-09-15T21:51:23.535Z,81.10
2022-09-15T21:53:52.404Z,81.36
2022-09-15T21:56:19.348Z,80.97
2022-09-15T21:58:45.731Z,81.32
2022-09-15T22:01:19.220Z,81.22
2022-09-15T22:03:54.100Z,82.75
2022-09-15T22:06:22.172Z,82.17
2022-09-15T22:08:48.727Z,82.00
2022-09-15T22:11:15.381Z,82.46
2022-09-15T22:13:43.801Z,84.06
2022-09-15T22:16:18.902Z,83.15
2022-09-15T22:18:46.032Z,84.28
2022-09-15T22:21:21.203Z,83.75
2022-09-15T22:23:49.255Z,83.44
2022-09-15T22:26:21.494Z,83.79
2022-09-15T22:28:48.674Z,83.92
2022-09-15T22:31:16.869Z,84.61
2022-09-15T22:33:44.422Z,84.94
2022-09-15T22:36:16.298Z,84.11
2022-09-15T22:38:43.243Z,84.45
2022-09-15T22:41:12.577Z,85.08
2022-09-15T22:43:39.992Z,84.63
2022-09-15T22:46:07.176Z,84.96
2022-09-15T22:48:34.004Z,84.69
2022-09-15T22:51:00.623Z,85.11
2022-09-15T22:53:27.357Z,85.80
2022-09-15T22:56:07.314Z,85.32
2022-09-15T22:58:35.578Z,85.05
2022-09-15T23:01:13.463Z,85.71
2022-09-15T23:03:40.615Z,86.06
2022-09-15T23:06:07.854Z,86.45
2022-09-15T23:08:35.104Z,87.18
2022-09-15T23:11:14.291Z,87.24
2022-09-15T23:13:41.779Z,86.71
2022-09-15T23:16:08.977Z,86.71
2022-09-15T23:18:36.000Z,86.55
2022-09-15T23:21:07.299Z,86.81
2022-09-15T23:23:35.931Z,85.59
2022-09-15T23:26:03.906Z,85.42
2022-09-15T23:28:31.371Z,84.56
2022-09-15T23:30:58.893Z,84.71
2022-09-15T23:33:26.923Z,85.14
2022-09-15T23:35:54.115Z,84.89
2022-09-15T23:38:21.958Z,86.01
2022-09-15T23:40:50.458Z,84.59
2022-09-15T23:43:17.462Z,84.78
2022-09-15T23:45:45.370Z,84.12
2022-09-15T23:48:12.806Z,83.88
2022-09-15T23:50:40.055Z,84.63
2022-09-15T23:53:06.862Z,85.69
2022-09-15T23:55:33.625Z,85.48
2022-09-15T23:58:00.546Z,85.11
